Time;durP1;ratioP1;P1;durP2;ratioP2;P2;SDS_P1;SDS_P2;PMS_P1;PMS_P2;Temp;Humidity;BMP_temperature;BMP_pressure;BME280_temperature;BME280_humidity;BME280_pressure;Samples;Min_cycle;Max_cycle;Signal;HPM_P1;HPM_P2
2021/09/17 00:00:35;;;;;;;7.57;6.63;;;13.40;99.90;;;;;;5035256;28;20049;-87
2021/09/17 00:03:02;;;;;;;8.10;6.43;;;13.30;99.90;;;;;;5034590;28;20053;-86
2021/09/17 00:05:30;;;;;;;7.25;6.65;;;13.20;99.90;;;;;;5017347;28;20041;-87
2021/09/17 00:07:57;;;;;;;11.07;7.03;;;13.10;99.90;;;;;;5013615;28;20180;-87
2021/09/17 00:10:24;;;;;;;7.72;7.00;;;12.90;99.90;;;;;;5046234;28;20058;-87
2021/09/17 00:12:51;;;;;;;6.90;6.30;;;12.80;99.90;;;;;;5046518;28;20081;-86
2021/09/17 00:15:18;;;;;;;7.93;6.75;;;12.80;99.90;;;;;;5046816;28;20085;-87
2021/09/17 00:17:46;;;;;;;12.13;7.07;;;12.70;99.90;;;;;;5046233;28;20050;-87
2021/09/17 00:20:14;;;;;;;11.38;7.70;;;12.70;99.90;;;;;;5046278;28;20132;-87
2021/09/17 00:22:42;;;;;;;10.73;8.05;;;12.70;99.90;;;;;;5013502;28;20050;-87
2021/09/17 00:25:10;;;;;;;8.75;7.60;;;12.70;99.90;;;;;;5046109;28;20081;-87
2021/09/17 00:27:37;;;;;;;17.55;8.55;;;12.70;99.90;;;;;;5046072;28;20050;-86
2021/09/17 00:30:05;;;;;;;15.40;7.63;;;12.60;99.90;;;;;;5046156;28;20448;-87
2021/09/17 00:32:31;;;;;;;12.35;7.85;;;12.70;99.90;;;;;;5046105;28;20045;-88
2021/09/17 00:34:59;;;;;;;9.55;7.38;;;12.70;99.90;;;;;;5014297;28;20165;-86
2021/09/17 00:37:26;;;;;;;8.50;7.65;;;12.70;99.90;;;;;;5046136;28;20046;-86
2021/09/17 00:39:53;;;;;;;10.18;7.57;;;12.70;99.90;;;;;;5045990;28;20085;-87
2021/09/17 00:42:19;;;;;;;8.82;7.13;;;12.70;99.90;;;;;;5045960;28;20050;-87
2021/09/17 00:44:46;;;;;;;10.40;7.45;;;12.60;99.90;;;;;;5045843;28;20096;-87
2021/09/17 00:47:13;;;;;;;7.60;6.68;;;12.50;99.90;;;;;;5045448;28;20050;-87
2021/09/17 00:49:40;;;;;;;9.95;7.63;;;12.50;99.90;;;;;;5049331;28;20077;-87
2021/09/17 00:52:08;;;;;;;9.10;7.60;;;12.30;99.90;;;;;;5031851;28;20073;-86
2021/09/17 00:54:35;;;;;;;8.63;7.05;;;12.20;99.90;;;;;;5047364;28;20128;-87
2021/09/17 00:57:05;;;;;;;8.43;7.15;;;12.10;99.90;;;;;;5045680;28;20494;-87
2021/09/17 00:59:32;;;;;;;15.48;7.47;;;12.00;99.90;;;;;;5013823;28;20052;-87
2021/09/17 01:01:59;;;;;;;9.18;6.32;;;11.90;99.90;;;;;;5014097;28;20052;-87
2021/09/17 01:04:26;;;;;;;8.85;6.65;;;11.80;99.90;;;;;;5013903;28;20089;-87
2021/09/17 01:06:54;;;;;;;10.65;6.70;;;11.80;99.90;;;;;;5016797;28;20567;-87
2021/09/17 01:09:20;;;;;;;7.13;6.53;;;11.60;99.90;;;;;;5016270;28;20128;-87
2021/09/17 01:11:48;;;;;;;17.35;8.60;;;11.50;99.90;;;;;;5016462;28;20136;-87
2021/09/17 01:14:15;;;;;;;8.82;7.57;;;11.40;99.90;;;;;;5016294;28;20049;-87
2021/09/17 01:16:42;;;;;;;11.75;7.75;;;11.30;99.90;;;;;;5016229;28;20055;-87
2021/09/17 01:19:09;;;;;;;11.75;7.22;;;11.30;99.90;;;;;;5016123;28;20045;-88
2021/09/17 01:21:36;;;;;;;15.63;7.63;;;11.30;99.90;;;;;;5016340;28;20049;-88
2021/09/17 01:24:03;;;;;;;15.00;9.10;;;11.20;99.90;;;;;;5016281;28;20081;-87
2021/09/17 01:26:30;;;;;;;12.45;8.88;;;11.30;99.90;;;;;;5016185;28;20072;-87
2021/09/17 01:28:57;;;;;;;14.77;9.38;;;11.20;99.90;;;;;;5048772;28;20042;-87
2021/09/17 01:31:24;;;;;;;16.25;11.23;;;11.30;99.90;;;;;;5016053;28;20060;-88
2021/09/17 01:33:50;;;;;;;16.52;11.40;;;11.30;99.90;;;;;;5033250;28;20071;-88
2021/09/17 01:36:17;;;;;;;18.35;11.38;;;11.40;99.90;;;;;;5016046;28;20049;-88
2021/09/17 01:38:44;;;;;;;20.27;11.70;;;11.50;99.90;;;;;;5016291;28;20057;-88
2021/09/17 01:41:10;;;;;;;10.68;8.75;;;11.50;99.90;;;;;;5016083;28;20148;-88
2021/09/17 01:43:37;;;;;;;16.08;8.68;;;11.50;99.90;;;;;;5015809;28;20049;-88
2021/09/17 01:46:04;;;;;;;12.13;7.75;;;11.50;99.90;;;;;;5033059;28;20057;-88
2021/09/17 01:48:31;;;;;;;15.32;8.73;;;11.40;99.90;;;;;;5016015;28;20045;-87
2021/09/17 01:50:58;;;;;;;12.52;9.15;;;11.40;99.90;;;;;;5015740;28;20056;-89
2021/09/17 01:53:25;;;;;;;12.05;9.98;;;11.40;99.90;;;;;;5048481;28;20056;-89
2021/09/17 01:55:53;;;;;;;13.43;10.70;;;11.50;99.90;;;;;;5015763;28;20068;-90
2021/09/17 01:58:19;;;;;;;15.48;9.73;;;11.50;99.90;;;;;;5018840;28;20049;-89
2021/09/17 02:00:46;;;;;;;12.48;10.20;;;11.60;99.90;;;;;;5019415;28;20050;-88
2021/09/17 02:03:13;;;;;;;10.98;9.70;;;11.60;99.90;;;;;;5021404;28;20072;-89
2021/09/17 02:05:40;;;;;;;16.20;10.60;;;11.70;99.90;;;;;;5019498;28;20409;-90
2021/09/17 02:08:07;;;;;;;12.23;9.68;;;11.70;99.90;;;;;;5037975;28;20085;-90
2021/09/17 02:10:34;;;;;;;12.43;9.10;;;11.80;99.90;;;;;;5071771;28;20061;-89
2021/09/17 02:13:01;;;;;;;11.27;9.73;;;11.80;99.90;;;;;;5021867;28;20064;-88
2021/09/17 02:15:27;;;;;;;8.43;7.68;;;11.70;99.90;;;;;;5019156;28;20052;-86
2021/09/17 02:17:54;;;;;;;9.48;7.63;;;11.70;99.90;;;;;;5019084;28;20053;-87
2021/09/17 02:20:22;;;;;;;15.65;9.07;;;11.70;99.90;;;;;;5019229;28;20053;-86
2021/09/17 02:22:48;;;;;;;10.70;8.02;;;11.70;99.90;;;;;;5019108;28;20053;-86
2021/09/17 02:25:15;;;;;;;15.27;8.80;;;11.70;99.90;;;;;;5019001;28;20140;-87
2021/09/17 02:27:42;;;;;;;14.15;8.60;;;11.70;99.90;;;;;;5019019;28;20063;-87
2021/09/17 02:30:10;;;;;;;11.50;8.35;;;11.80;99.90;;;;;;5018981;28;20050;-87
2021/09/17 02:32:37;;;;;;;9.80;8.70;;;11.80;99.90;;;;;;5018795;28;20060;-87
2021/09/17 02:35:05;;;;;;;8.18;7.47;;;11.80;99.90;;;;;;5018795;28;20144;-87
2021/09/17 02:37:32;;;;;;;9.55;8.25;;;11.80;99.90;;;;;;5018989;28;20051;-87
2021/09/17 02:39:59;;;;;;;12.50;7.80;;;11.90;99.90;;;;;;5018778;28;20404;-88
2021/09/17 02:42:26;;;;;;;11.13;8.68;;;11.80;99.90;;;;;;5018775;28;20055;-87
2021/09/17 02:44:53;;;;;;;11.27;8.15;;;11.80;99.90;;;;;;5035724;28;20141;-86
2021/09/17 02:47:21;;;;;;;7.95;7.15;;;11.80;99.90;;;;;;5018631;28;20045;-89
2021/09/17 02:49:48;;;;;;;9.60;7.32;;;11.80;99.90;;;;;;5018533;28;20402;-87
2021/09/17 02:52:15;;;;;;;10.48;7.28;;;11.80;99.90;;;;;;5018802;28;20049;-90
2021/09/17 02:54:41;;;;;;;8.07;7.30;;;11.90;99.90;;;;;;5035672;28;20041;-87
2021/09/17 02:57:08;;;;;;;7.70;6.90;;;11.90;99.90;;;;;;5018303;28;20152;-88
2021/09/17 02:59:35;;;;;;;7.95;7.00;;;11.90;99.90;;;;;;5051256;28;20049;-89
2021/09/17 03:02:02;;;;;;;9.07;7.20;;;11.90;99.90;;;;;;5018264;28;20406;-87
2021/09/17 03:04:31;;;;;;;7.63;6.93;;;11.90;99.90;;;;;;5018297;28;20080;-87
2021/09/17 03:06:58;;;;;;;7.13;6.20;;;12.00;99.90;;;;;;5018040;28;20049;-88
2021/09/17 03:09:25;;;;;;;7.10;6.25;;;12.00;99.90;;;;;;5017743;28;20164;-89
2021/09/17 03:11:52;;;;;;;7.53;5.78;;;12.00;99.90;;;;;;5017877;28;20060;-86
2021/09/17 03:14:20;;;;;;;7.75;5.65;;;12.00;99.90;;;;;;5035764;28;20140;-86
2021/09/17 03:16:47;;;;;;;6.18;5.28;;;12.00;99.90;;;;;;5035543;28;20045;-88
2021/09/17 03:19:13;;;;;;;9.75;6.55;;;12.10;99.90;;;;;;5018160;28;20046;-90
2021/09/17 03:21:40;;;;;;;6.50;6.00;;;12.00;99.90;;;;;;5018340;28;20073;-89
2021/09/17 03:24:08;;;;;;;6.22;5.70;;;12.00;99.90;;;;;;5050831;28;20064;-88
2021/09/17 03:26:35;;;;;;;5.28;4.70;;;12.00;99.90;;;;;;5018706;28;20057;-88
2021/09/17 03:29:03;;;;;;;6.07;5.55;;;12.00;99.90;;;;;;5052006;28;20037;-88
2021/09/17 03:31:30;;;;;;;5.93;5.32;;;12.10;99.90;;;;;;5022686;28;20056;-89
2021/09/17 03:33:58;;;;;;;8.73;5.20;;;12.00;99.90;;;;;;5018053;28;20136;-89
2021/09/17 03:36:26;;;;;;;11.02;5.95;;;12.00;99.90;;;;;;5017920;28;20057;-89
2021/09/17 03:38:56;;;;;;;5.55;5.18;;;12.10;99.90;;;;;;5035199;28;20137;-88
2021/09/17 03:41:23;;;;;;;4.47;4.28;;;12.10;99.90;;;;;;5035280;28;20497;-89
2021/09/17 03:43:50;;;;;;;7.28;5.25;;;12.00;99.90;;;;;;5017894;28;20092;-88
2021/09/17 03:46:17;;;;;;;6.60;5.97;;;12.00;99.90;;;;;;5017706;28;20055;-89
2021/09/17 03:48:43;;;;;;;5.65;5.15;;;12.10;99.90;;;;;;5017342;28;20526;-90
2021/09/17 03:51:10;;;;;;;4.80;4.60;;;12.10;99.90;;;;;;5017617;28;20053;-89
2021/09/17 03:53:37;;;;;;;4.80;4.50;;;12.10;99.90;;;;;;5017531;28;20052;-89
2021/09/17 03:56:04;;;;;;;6.20;5.25;;;12.10;99.90;;;;;;5034793;28;20083;-89
2021/09/17 03:58:31;;;;;;;6.68;4.80;;;12.10;99.90;;;;;;5017291;28;20049;-88
2021/09/17 04:00:57;;;;;;;4.82;4.45;;;12.10;99.90;;;;;;5017288;28;20052;-88
2021/09/17 04:03:24;;;;;;;5.97;4.57;;;12.10;99.90;;;;;;5017516;28;20049;-88
2021/09/17 04:05:51;;;;;;;7.07;4.72;;;12.10;99.90;;;;;;5017190;28;20057;-89
2021/09/17 04:08:18;;;;;;;7.32;4.05;;;12.10;99.90;;;;;;5016866;28;20057;-88
2021/09/17 04:10:45;;;;;;;10.55;4.78;;;12.10;99.90;;;;;;5049799;28;20063;-89
2021/09/17 04:13:11;;;;;;;8.07;4.70;;;12.10;99.90;;;;;;5050109;28;20053;-89
2021/09/17 04:15:38;;;;;;;5.15;4.55;;;12.10;99.90;;;;;;5016948;28;20046;-89
2021/09/17 04:18:05;;;;;;;6.80;4.50;;;12.10;99.90;;;;;;5017012;28;20049;-89
2021/09/17 04:20:32;;;;;;;5.45;5.03;;;12.10;99.90;;;;;;5033639;28;20046;-89
2021/09/17 04:22:58;;;;;;;7.25;4.40;;;12.00;99.90;;;;;;5034021;28;20441;-89
2021/09/17 04:25:26;;;;;;;11.10;4.72;;;12.10;99.90;;;;;;5016666;28;20056;-89
2021/09/17 04:27:53;;;;;;;4.57;4.18;;;12.00;99.90;;;;;;5016717;28;20057;-89
2021/09/17 04:30:20;;;;;;;4.50;4.20;;;12.00;99.90;;;;;;5034062;28;20042;-88
2021/09/17 04:32:47;;;;;;;15.95;4.47;;;12.00;99.90;;;;;;5016553;28;20531;-87
2021/09/17 04:35:15;;;;;;;7.05;4.22;;;12.00;99.90;;;;;;5016720;28;20049;-88
2021/09/17 04:37:44;;;;;;;4.43;3.80;;;11.90;99.90;;;;;;5049840;28;20085;-88
2021/09/17 04:40:14;;;;;;;10.60;4.60;;;11.90;99.90;;;;;;5033904;28;20045;-88
2021/09/17 04:42:42;;;;;;;5.20;4.82;;;11.90;99.90;;;;;;5016525;28;20457;-88
2021/09/17 04:45:09;;;;;;;6.53;4.10;;;11.90;99.90;;;;;;5016755;28;20045;-88
2021/09/17 04:47:37;;;;;;;9.57;4.43;;;11.90;99.90;;;;;;5030464;28;20045;-88
2021/09/17 04:50:05;;;;;;;6.45;4.32;;;11.90;99.90;;;;;;5040528;28;20104;-88
2021/09/17 04:52:47;;;;;;;6.63;4.43;;;11.90;99.90;;;;;;5018358;28;20055;-88
2021/09/17 04:55:14;;;;;;;6.70;4.50;;;11.90;99.90;;;;;;5033583;28;20053;-88
2021/09/17 04:57:41;;;;;;;5.95;4.72;;;11.90;99.90;;;;;;5016289;28;20060;-88
2021/09/17 05:00:08;;;;;;;9.82;4.93;;;12.00;99.90;;;;;;5016447;28;20047;-89
2021/09/17 05:02:35;;;;;;;5.93;4.03;;;12.00;99.90;;;;;;5016472;28;20061;-88
2021/09/17 05:05:03;;;;;;;9.55;4.25;;;12.00;99.90;;;;;;5016320;28;20049;-88
2021/09/17 05:07:33;;;;;;;5.72;4.68;;;12.00;99.90;;;;;;5033346;28;20053;-88
2021/09/17 05:10:00;;;;;;;4.80;4.40;;;12.00;99.90;;;;;;5016509;28;20132;-88
2021/09/17 05:12:27;;;;;;;7.35;4.15;;;12.00;99.90;;;;;;5016129;28;20081;-88
2021/09/17 05:14:54;;;;;;;4.68;3.55;;;12.10;99.90;;;;;;5033312;28;20053;-88
2021/09/17 05:17:20;;;;;;;4.18;3.88;;;12.10;99.90;;;;;;5033525;28;20049;-88
2021/09/17 05:19:47;;;;;;;4.88;4.30;;;12.10;99.90;;;;;;5016207;28;20046;-88
2021/09/17 05:22:14;;;;;;;6.75;4.60;;;12.10;99.90;;;;;;5016180;28;20510;-88
2021/09/17 05:24:41;;;;;;;6.72;4.05;;;12.10;99.90;;;;;;5016545;28;20506;-87
2021/09/17 05:27:12;;;;;;;8.18;4.30;;;12.10;99.90;;;;;;5049077;28;20042;-88
2021/09/17 05:29:39;;;;;;;6.03;4.18;;;12.20;99.90;;;;;;5016326;28;20532;-87
2021/09/17 05:32:07;;;;;;;4.13;3.88;;;12.20;99.90;;;;;;5034268;28;20085;-88
2021/09/17 05:34:34;;;;;;;4.72;3.85;;;12.20;99.90;;;;;;5019964;28;20093;-87
2021/09/17 05:37:01;;;;;;;8.35;3.65;;;12.30;99.90;;;;;;5052738;28;20132;-87
2021/09/17 05:39:27;;;;;;;4.25;3.70;;;12.30;99.90;;;;;;5019688;28;20052;-87
2021/09/17 05:41:54;;;;;;;4.22;3.78;;;12.40;99.90;;;;;;5019641;28;20144;-88
2021/09/17 05:44:21;;;;;;;5.78;3.40;;;12.40;99.90;;;;;;5019832;28;20586;-87
2021/09/17 05:46:48;;;;;;;4.38;3.97;;;12.50;99.90;;;;;;5036788;28;20088;-87
2021/09/17 05:49:15;;;;;;;5.97;3.50;;;12.50;99.90;;;;;;5019709;28;20057;-88
2021/09/17 05:51:41;;;;;;;9.73;4.07;;;12.60;99.90;;;;;;5036885;28;20049;-88
2021/09/17 05:54:08;;;;;;;4.82;4.05;;;12.60;99.90;;;;;;5019285;28;20056;-88
2021/09/17 05:56:35;;;;;;;4.20;3.08;;;12.70;99.90;;;;;;5036674;28;20626;-87
2021/09/17 05:59:02;;;;;;;3.60;3.10;;;12.70;99.90;;;;;;5019196;28;20049;-87
2021/09/17 06:01:29;;;;;;;6.03;3.17;;;12.80;99.90;;;;;;5019239;28;20050;-87
2021/09/17 06:03:56;;;;;;;3.88;3.00;;;12.90;99.90;;;;;;5019346;28;20056;-87
2021/09/17 06:06:22;;;;;;;3.00;2.80;;;13.00;99.90;;;;;;5026652;28;20036;-88
2021/09/17 06:08:49;;;;;;;4.90;2.90;;;13.00;99.90;;;;;;5048655;28;20049;-87
2021/09/17 06:11:17;;;;;;;8.40;3.60;;;13.10;99.90;;;;;;5052528;28;20046;-87
2021/09/17 06:13:44;;;;;;;5.35;2.60;;;13.30;99.90;;;;;;5036106;28;20051;-87
2021/09/17 06:16:11;;;;;;;3.28;2.65;;;13.40;99.90;;;;;;5036307;28;20045;-87
2021/09/17 06:18:42;;;;;;;5.35;2.67;;;13.50;99.90;;;;;;5051253;28;20050;-87
2021/09/17 06:21:10;;;;;;;3.00;2.50;;;13.60;99.90;;;;;;5018837;28;20053;-88
2021/09/17 06:23:37;;;;;;;3.80;2.50;;;13.60;99.90;;;;;;5051832;28;20080;-87
2021/09/17 06:26:10;;;;;;;3.00;2.67;;;13.60;99.90;;;;;;5036259;28;20045;-87
2021/09/17 06:28:37;;;;;;;6.15;3.00;;;13.70;99.90;;;;;;5018811;28;20045;-87
2021/09/17 06:31:04;;;;;;;2.88;2.58;;;13.60;99.90;;;;;;5018986;28;20053;-87
2021/09/17 06:33:31;;;;;;;5.22;3.05;;;13.70;99.90;;;;;;5018715;28;20056;-87
2021/09/17 06:35:58;;;;;;;6.57;2.80;;;13.70;99.90;;;;;;5018647;28;20053;-86
2021/09/17 06:38:25;;;;;;;3.58;2.53;;;13.60;99.90;;;;;;5051561;28;20053;-87
2021/09/17 06:40:52;;;;;;;2.72;2.53;;;13.60;99.90;;;;;;5018570;28;20127;-86
2021/09/17 06:43:19;;;;;;;3.40;2.60;;;13.50;99.90;;;;;;5017853;28;20053;-87
2021/09/17 06:45:45;;;;;;;5.20;2.65;;;13.50;99.90;;;;;;5018269;28;20049;-87
2021/09/17 06:48:12;;;;;;;3.92;2.70;;;13.50;99.90;;;;;;5035973;28;20080;-87
2021/09/17 06:50:39;;;;;;;4.93;2.35;;;13.40;99.90;;;;;;5051379;28;20129;-87
2021/09/17 06:53:05;;;;;;;10.82;3.67;;;13.50;99.90;;;;;;5018314;28;20413;-87
2021/09/17 06:55:33;;;;;;;8.00;3.35;;;13.40;99.90;;;;;;5018526;28;20072;-87
2021/09/17 06:58:01;;;;;;;3.72;2.70;;;13.50;99.90;;;;;;5051738;28;20056;-88
2021/09/17 07:00:33;;;;;;;9.88;2.92;;;13.60;99.90;;;;;;5018464;28;20391;-87
2021/09/17 07:03:00;;;;;;;2.83;2.63;;;13.70;99.90;;;;;;5018355;28;20049;-87
2021/09/17 07:05:29;;;;;;;7.60;2.65;;;13.70;99.90;;;;;;5018214;28;20481;-87
2021/09/17 07:08:01;;;;;;;4.22;2.90;;;13.80;99.90;;;;;;5017625;28;20046;-86
2021/09/17 07:10:29;;;;;;;4.15;3.13;;;13.90;99.90;;;;;;5018208;28;20408;-87
2021/09/17 07:12:56;;;;;;;18.02;4.43;;;13.90;99.90;;;;;;5018001;28;20053;-87
2021/09/17 07:15:23;;;;;;;6.93;3.70;;;14.00;99.90;;;;;;5050911;28;20049;-87
2021/09/17 07:17:51;;;;;;;4.30;3.30;;;14.10;99.90;;;;;;5035345;28;20564;-87
2021/09/17 07:20:19;;;;;;;5.38;3.50;;;14.20;99.90;;;;;;5018424;28;20073;-87
2021/09/17 07:22:46;;;;;;;6.82;2.80;;;14.20;99.90;;;;;;5035406;28;20054;-87
2021/09/17 07:25:13;;;;;;;4.43;2.60;;;14.30;99.90;;;;;;5023592;28;20056;-88
2021/09/17 07:27:40;;;;;;;5.15;2.33;;;14.30;99.90;;;;;;5033448;28;20084;-87
2021/09/17 07:30:08;;;;;;;2.92;2.53;;;14.40;99.90;;;;;;5018683;28;20077;-87
2021/09/17 07:32:35;;;;;;;4.93;2.35;;;14.50;99.90;;;;;;5017516;28;20072;-87
2021/09/17 07:35:04;;;;;;;3.58;2.30;;;14.50;99.90;;;;;;5017714;28;20049;-88
2021/09/17 07:37:31;;;;;;;3.20;2.40;;;14.60;99.90;;;;;;5017871;28;20041;-87
2021/09/17 07:39:58;;;;;;;4.40;2.40;;;14.70;99.90;;;;;;5017783;28;20056;-87
2021/09/17 07:42:25;;;;;;;2.20;1.67;;;14.80;99.90;;;;;;5017320;28;20049;-87
2021/09/17 07:44:51;;;;;;;4.82;2.22;;;14.80;99.90;;;;;;5034461;28;20144;-87
2021/09/17 07:47:18;;;;;;;5.35;2.30;;;14.90;99.90;;;;;;5017598;28;20056;-87
2021/09/17 07:49:45;;;;;;;2.53;2.10;;;14.90;99.90;;;;;;5017399;28;20524;-87
2021/09/17 07:52:12;;;;;;;2.35;2.08;;;14.90;99.90;;;;;;5034648;28;20164;-86
2021/09/17 07:54:38;;;;;;;2.45;2.25;;;15.10;99.90;;;;;;5017103;28;20060;-87
2021/09/17 07:57:05;;;;;;;6.88;2.78;;;15.20;99.90;;;;;;5033238;28;20045;-87
2021/09/17 07:59:32;;;;;;;6.05;3.33;;;15.30;99.90;;;;;;5016690;28;20063;-87
2021/09/17 08:01:59;;;;;;;4.97;3.22;;;15.40;99.90;;;;;;5016786;28;20064;-87
2021/09/17 08:04:26;;;;;;;6.68;3.00;;;15.50;99.90;;;;;;5016934;28;20065;-85
2021/09/17 08:06:53;;;;;;;5.07;2.88;;;15.50;99.90;;;;;;5016193;28;20108;-87
2021/09/17 08:09:19;;;;;;;8.63;4.00;;;15.70;99.90;;;;;;5033794;28;20056;-87
2021/09/17 08:11:46;;;;;;;8.00;5.88;;;15.90;99.90;;;;;;5033584;28;20547;-87
2021/09/17 08:14:13;;;;;;;7.43;3.20;;;16.10;99.90;;;;;;5016140;28;20481;-87
2021/09/17 08:16:40;;;;;;;2.00;1.90;;;16.20;99.90;;;;;;5016102;28;20045;-87
2021/09/17 08:19:07;;;;;;;1.50;1.40;;;16.40;99.90;;;;;;5016394;28;20056;-87
2021/09/17 08:21:41;;;;;;;2.55;1.88;;;16.50;99.90;;;;;;5016147;28;20052;-87
2021/09/17 08:24:14;;;;;;;6.10;2.50;;;16.60;99.90;;;;;;5049153;28;20132;-84
2021/09/17 08:26:45;;;;;;;3.40;2.10;;;16.80;99.90;;;;;;5033543;28;20512;-85
2021/09/17 08:29:13;;;;;;;5.47;2.28;;;16.90;99.90;;;;;;5033532;28;20409;-86
2021/09/17 08:31:40;;;;;;;3.20;2.28;;;17.00;99.90;;;;;;5016253;28;20053;-85
2021/09/17 08:34:08;;;;;;;4.78;2.10;;;17.20;99.90;;;;;;5033454;28;20136;-84
2021/09/17 08:36:36;;;;;;;1.75;1.65;;;17.40;99.90;;;;;;5016016;28;20596;-86
2021/09/17 08:39:05;;;;;;;2.00;1.70;;;17.60;99.90;;;;;;5016143;28;20046;-86
2021/09/17 08:41:32;;;;;;;5.25;2.00;;;17.70;99.90;;;;;;5016108;28;20063;-86
2021/09/17 08:43:59;;;;;;;4.10;1.60;;;17.70;99.90;;;;;;5016542;28;20083;-87
2021/09/17 08:46:26;;;;;;;2.55;2.03;;;17.60;99.90;;;;;;5052014;28;20164;-86
2021/09/17 08:48:54;;;;;;;7.30;1.80;;;17.70;99.90;;;;;;5016649;28;20049;-85
2021/09/17 08:51:21;;;;;;;2.28;1.63;;;17.90;99.90;;;;;;5033248;28;20052;-86
2021/09/17 08:53:48;;;;;;;3.28;1.73;;;17.90;99.90;;;;;;5015932;28;20056;-86
2021/09/17 08:56:16;;;;;;;1.80;1.55;;;18.20;99.90;;;;;;5048484;28;20104;-86
2021/09/17 08:58:45;;;;;;;1.50;1.40;;;18.40;99.90;;;;;;5033188;28;20053;-85
2021/09/17 09:01:33;;;;;;;1.60;1.50;;;18.60;99.90;;;;;;5015562;28;20486;-86
2021/09/17 09:04:04;;;;;;;3.47;1.60;;;18.50;99.90;;;;;;5015981;28;20053;-85
2021/09/17 09:06:45;;;;;;;3.03;1.50;;;18.30;99.90;;;;;;5015901;28;20054;-85
2021/09/17 09:09:20;;;;;;;14.70;3.10;;;18.20;99.90;;;;;;5019513;28;20049;-85
2021/09/17 09:11:49;;;;;;;1.50;1.40;;;18.00;99.90;;;;;;5019361;28;20045;-86
2021/09/17 09:14:17;;;;;;;1.80;1.70;;;18.20;99.90;;;;;;5019545;28;20099;-86
2021/09/17 09:16:50;;;;;;;6.63;1.60;;;18.60;99.90;;;;;;5019105;28;20054;-85
2021/09/17 09:19:43;;;;;;;3.17;1.70;;;18.80;99.90;;;;;;5019438;28;20045;-86
2021/09/17 09:22:11;;;;;;;4.95;1.70;;;18.70;99.90;;;;;;5017004;28;20132;-86
2021/09/17 09:24:43;;;;;;;2.53;1.73;;;18.70;99.90;;;;;;5019375;28;20111;-86
2021/09/17 09:27:16;;;;;;;4.60;1.57;;;18.70;99.90;;;;;;5019307;28;20564;-84
2021/09/17 09:29:46;;;;;;;1.40;1.30;;;18.70;99.90;;;;;;5036582;28;20076;-86
2021/09/17 09:32:28;;;;;;;6.15;1.92;;;18.60;99.90;;;;;;5036610;28;20045;-85
2021/09/17 09:35:00;;;;;;;2.95;1.98;;;18.60;99.90;;;;;;5018547;28;20541;-84
2021/09/17 09:37:30;;;;;;;2.53;1.30;;;18.50;99.90;;;;;;5019101;28;20045;-85
2021/09/17 09:40:04;;;;;;;1.48;1.33;;;18.50;99.90;;;;;;5036432;28;20095;-85
2021/09/17 09:42:44;;;;;;;;;;;18.40;99.90;;;;;;5036738;28;20533;-85
2021/09/17 09:45:19;;;;;;;3.15;1.33;;;18.40;99.90;;;;;;5018684;28;19928;-86
2021/09/17 09:47:51;;;;;;;3.45;1.88;;;18.50;99.90;;;;;;5018652;28;20061;-87
2021/09/17 09:50:26;;;;;;;1.80;1.70;;;18.40;99.90;;;;;;5036240;28;20375;-85
2021/09/17 09:52:55;;;;;;;2.47;1.98;;;18.30;99.90;;;;;;5018693;28;20049;-86
2021/09/17 09:55:22;;;;;;;2.88;2.03;;;18.50;99.90;;;;;;5035722;28;20049;-86
2021/09/17 09:57:49;;;;;;;2.15;2.05;;;18.50;99.90;;;;;;5035775;28;20056;-85
2021/09/17 10:00:16;;;;;;;1.73;1.63;;;18.30;99.90;;;;;;5018628;28;20057;-85
2021/09/17 10:02:45;;;;;;;2.50;1.88;;;18.20;99.90;;;;;;5018504;28;20140;-86
2021/09/17 10:05:16;;;;;;;2.42;2.22;;;18.10;99.90;;;;;;5054738;28;20055;-86
2021/09/17 10:07:44;;;;;;;2.10;1.92;;;18.00;99.90;;;;;;5019361;28;20072;-85
2021/09/17 10:10:13;;;;;;;2.65;2.45;;;17.90;99.90;;;;;;5018652;28;20132;-85
2021/09/17 10:12:40;;;;;;;4.50;3.50;;;17.80;99.90;;;;;;5018062;28;20053;-85
2021/09/17 10:15:11;;;;;;;3.20;2.90;;;17.60;99.90;;;;;;5017904;28;20053;-86
2021/09/17 10:17:51;;;;;;;4.25;3.50;;;17.40;99.90;;;;;;5049800;28;20060;-85
2021/09/17 10:20:18;;;;;;;3.50;3.30;;;17.40;99.90;;;;;;5017361;28;20450;-85
2021/09/17 10:22:45;;;;;;;2.75;2.55;;;17.50;99.90;;;;;;5017802;28;20057;-85
2021/09/17 10:25:16;;;;;;;3.15;2.70;;;17.90;99.90;;;;;;5035504;28;20160;-85
2021/09/17 10:27:47;;;;;;;2.83;2.63;;;18.20;99.90;;;;;;5035743;28;20049;-86
2021/09/17 10:30:16;;;;;;;2.92;2.72;;;18.70;99.90;;;;;;5017974;28;20085;-85
2021/09/17 10:32:50;;;;;;;2.63;2.42;;;19.20;99.90;;;;;;5018057;28;20544;-85
2021/09/17 10:35:21;;;;;;;2.65;2.40;;;19.40;99.90;;;;;;5017632;28;20133;-85
2021/09/17 10:38:15;;;;;;;2.58;2.38;;;19.70;99.90;;;;;;5035433;28;20053;-84
2021/09/17 10:41:04;;;;;;;4.20;2.50;;;19.80;99.90;;;;;;5017905;28;20045;-85
2021/09/17 10:43:39;;;;;;;3.22;1.90;;;19.80;99.90;;;;;;5017140;28;20452;-83
2021/09/17 10:46:22;;;;;;;2.97;2.05;;;20.10;99.90;;;;;;5019434;28;20065;-86
2021/09/17 10:48:56;;;;;;;2.33;2.20;;;19.70;99.90;;;;;;5035112;28;20504;-84
2021/09/17 10:51:52;;;;;;;3.15;1.42;;;19.50;99.90;;;;;;5035253;28;20053;-84
2021/09/17 10:54:22;;;;;;;2.55;1.63;;;19.30;99.90;;;;;;5022099;28;20051;-82
2021/09/17 10:56:49;;;;;;;2.58;1.80;;;19.00;99.90;;;;;;5017227;28;20559;-85
2021/09/17 10:59:25;;;;;;;1.70;1.60;;;18.60;99.90;;;;;;5035140;28;20605;-85
2021/09/17 11:02:03;;;;;;;2.53;2.00;;;18.30;99.90;;;;;;5017297;28;20050;-85
2021/09/17 11:04:32;;;;;;;1.70;1.60;;;18.10;99.90;;;;;;5034908;28;20057;-85
2021/09/17 11:07:18;;;;;;;1.60;1.50;;;18.10;99.90;;;;;;5017292;28;20141;-85
2021/09/17 11:09:55;;;;;;;4.15;1.67;;;18.20;99.90;;;;;;5035588;28;20057;-85
2021/09/17 11:12:25;;;;;;;1.52;1.42;;;18.20;99.90;;;;;;5017431;28;20045;-85
2021/09/17 11:15:10;;;;;;;1.52;1.42;;;18.40;99.90;;;;;;5016923;28;20167;-84
2021/09/17 11:17:42;;;;;;;2.13;1.20;;;18.50;99.90;;;;;;5017632;28;20042;-85
2021/09/17 11:20:25;;;;;;;1.65;1.55;;;18.80;99.90;;;;;;5017299;28;20145;-85
2021/09/17 11:23:04;;;;;;;1.85;1.70;;;18.70;99.90;;;;;;5026097;28;20048;-86
2021/09/17 11:25:42;;;;;;;2.67;1.48;;;18.80;99.90;;;;;;5044176;28;20061;-85
2021/09/17 11:28:30;;;;;;;3.67;2.72;;;19.10;99.90;;;;;;5018104;28;20057;-85
2021/09/17 11:31:17;;;;;;;2.03;1.30;;;19.40;99.90;;;;;;5034008;28;20053;-84
2021/09/17 11:33:56;;;;;;;1.55;1.45;;;20.20;99.90;;;;;;5016821;28;20064;-84
2021/09/17 11:36:43;;;;;;;2.95;1.85;;;20.40;99.90;;;;;;5016968;28;20049;-83
2021/09/17 11:39:28;;;;;;;2.17;1.98;;;20.60;99.90;;;;;;5016816;28;20506;-85
2021/09/17 11:42:07;;;;;;;2.30;1.35;;;20.60;99.90;;;;;;5035092;28;20128;-83
2021/09/17 11:44:44;;;;;;;1.38;1.23;;;20.70;99.90;;;;;;5016472;28;20129;-83
2021/09/17 11:47:20;;;;;;;2.78;1.52;;;20.80;99.90;;;;;;5015972;28;20132;-83
2021/09/17 11:49:47;;;;;;;4.15;1.42;;;20.70;99.90;;;;;;5016425;28;20059;-83
2021/09/17 11:52:17;;;;;;;9.27;2.35;;;20.60;99.90;;;;;;5049035;28;20421;-85
2021/09/17 11:55:02;;;;;;;6.22;1.77;;;20.60;99.90;;;;;;5015479;28;20061;-83
2021/09/17 11:57:39;;;;;;;10.10;2.65;;;20.60;99.90;;;;;;5017131;28;20076;-85
2021/09/17 12:00:11;;;;;;;2.67;1.80;;;20.60;99.90;;;;;;5016291;28;20246;-84
2021/09/17 12:02:38;;;;;;;2.15;1.30;;;20.70;99.90;;;;;;5033586;28;20454;-84
2021/09/17 12:05:15;;;;;;;3.47;1.55;;;20.60;99.90;;;;;;5033382;28;20049;-84
2021/09/17 12:07:43;;;;;;;1.70;1.60;;;20.50;99.90;;;;;;5016012;28;20096;-82
2021/09/17 12:10:13;;;;;;;2.33;1.88;;;20.10;99.90;;;;;;5033593;28;20151;-85
2021/09/17 12:12:43;;;;;;;1.90;1.65;;;19.90;99.90;;;;;;5016316;28;20049;-84
2021/09/17 12:15:11;;;;;;;4.75;2.90;;;19.90;99.90;;;;;;5033098;28;20049;-83
2021/09/17 12:17:56;;;;;;;2.25;1.80;;;19.90;99.90;;;;;;5015986;28;20051;-84
2021/09/17 12:20:38;;;;;;;3.35;1.83;;;19.80;99.90;;;;;;5015602;28;20131;-83
2021/09/17 12:23:05;;;;;;;7.60;2.22;;;19.60;99.90;;;;;;5005840;28;20052;-84
2021/09/17 12:25:32;;;;;;;2.22;2.03;;;19.20;99.90;;;;;;5005381;28;20046;-85
2021/09/17 12:28:08;;;;;;;5.13;1.50;;;18.90;99.90;;;;;;5021649;28;20046;-85
2021/09/17 12:30:36;;;;;;;4.45;1.75;;;18.80;99.90;;;;;;5004608;28;20045;-85
2021/09/17 12:33:09;;;;;;;3.75;2.22;;;18.80;99.90;;;;;;5004612;28;20064;-85
2021/09/17 12:35:38;;;;;;;6.53;1.95;;;18.70;99.90;;;;;;5004367;28;20045;-85
2021/09/17 12:38:06;;;;;;;3.10;1.73;;;18.80;99.90;;;;;;5008753;28;20051;-85
2021/09/17 12:40:39;;;;;;;1.98;1.70;;;18.60;99.90;;;;;;5005696;28;20050;-85
2021/09/17 12:43:28;;;;;;;11.80;2.97;;;18.50;99.90;;;;;;5028203;28;20043;-85
2021/09/17 12:46:09;;;;;;;5.32;1.88;;;18.50;99.90;;;;;;5007144;28;20129;-85
2021/09/17 12:48:41;;;;;;;2.03;1.92;;;18.60;99.90;;;;;;5014617;28;20504;-86
2021/09/17 12:51:25;;;;;;;4.57;3.40;;;18.70;99.90;;;;;;5015244;28;20506;-85
2021/09/17 12:53:51;;;;;;;5.60;2.40;;;18.70;99.90;;;;;;5032817;28;20489;-85
2021/09/17 12:56:18;;;;;;;3.20;2.90;;;18.60;99.90;;;;;;5015450;28;20045;-85